Time,TemperatureF,DewpointF,PressureIn,WindDirection,WindDirectionDegrees,WindSpeedMPH,WindSpeedGustMPH,Humidity,HourlyPrecipIn,Conditions,Clouds,dailyrainin,SoftwareType,DateUTC
2013-08-20 00:07:00,75.9,72.0,29.98,NE,39,8.0,-999.0,87,-99.99,,,0.00,weatherlink.com 1.10,2013-08-19 21:07:00,
2013-08-20 00:22:00,75.8,72.0,29.98,NE,38,8.0,-999.0,88,-99.99,,,0.00,weatherlink.com 1.10,2013-08-19 21:22:00,
2013-08-20 00:37:00,75.8,72.0,29.98,North,11,8.0,-999.0,88,-99.99,,,0.00,weatherlink.com 1.10,2013-08-19 21:37:00,
2013-08-20 00:53:00,75.8,72.0,29.98,NE,45,13.0,-999.0,88,-99.99,,,0.00,weatherlink.com 1.10,2013-08-19 21:53:00,
2013-08-20 01:07:00,75.8,72.0,29.98,NE,42,9.0,-999.0,88,-99.99,,,0.00,weatherlink.com 1.10,2013-08-19 22:07:00,
2013-08-20 01:22:00,75.7,72.0,29.97,NE,48,11.0,-999.0,89,-99.99,,,0.00,weatherlink.com 1.10,2013-08-19 22:22:00,
2013-08-20 01:38:00,75.6,72.0,29.97,NNE,14,10.0,-999.0,89,-99.99,,,0.00,weatherlink.com 1.10,2013-08-19 22:38:00,
2013-08-20 01:53:00,75.7,72.0,29.97,NE,46,14.0,-999.0,89,-99.99,,,0.00,weatherlink.com 1.10,2013-08-19 22:53:00,
2013-08-20 02:23:00,75.8,72.0,29.97,NNE,28,6.0,-999.0,88,-99.99,,,0.00,weatherlink.com 1.10,2013-08-19 23:23:00,
2013-08-20 02:38:00,75.5,72.0,29.96,NNE,22,5.0,-999.0,89,-99.99,,,0.00,weatherlink.com 1.10,2013-08-19 23:38:00,
2013-08-20 02:53:00,75.1,72.0,29.96,North,10,9.0,-999.0,89,-99.99,,,0.00,weatherlink.com 1.10,2013-08-19 23:53:00,
2013-08-20 03:08:00,74.9,72.0,29.96,NNE,22,8.0,-999.0,90,-99.99,,,0.00,weatherlink.com 1.10,2013-08-20 00:08:00,
2013-08-20 03:23:00,74.8,72.0,29.96,NNE,23,9.0,-999.0,91,-99.99,,,0.00,weatherlink.com 1.10,2013-08-20 00:23:00,
2013-08-20 03:38:00,74.7,72.0,29.96,NNE,22,7.0,-999.0,91,-99.99,,,0.00,weatherlink.com 1.10,2013-08-20 00:38:00,
2013-08-20 03:53:00,74.3,72.0,29.96,NNE,27,5.0,-999.0,91,-99.99,,,0.00,weatherlink.com 1.10,2013-08-20 00:53:00,
2013-08-20 04:08:00,74.1,71.0,29.95,NNE,19,6.0,-999.0,91,-99.99,,,0.00,weatherlink.com 1.10,2013-08-20 01:08:00,
2013-08-20 04:23:00,74.2,72.0,29.95,NNE,19,5.0,-999.0,91,-99.99,,,0.00,weatherlink.com 1.10,2013-08-20 01:23:00,
2013-08-20 04:38:00,74.5,72.0,29.95,NNE,26,5.0,-999.0,91,-99.99,,,0.00,weatherlink.com 1.10,2013-08-20 01:38:00,
2013-08-20 04:53:00,74.6,72.0,29.95,NNE,17,7.0,-999.0,91,-99.99,,,0.00,weatherlink.com 1.10,2013-08-20 01:53:00,
2013-08-20 06:07:00,74.6,72.0,29.95,North,5,7.0,-999.0,90,-99.99,,,0.00,weatherlink.com 1.10,2013-08-20 03:07:00,
2013-08-20 06:23:00,74.5,72.0,29.95,North,360,6.0,-999.0,90,-99.99,,,0.00,weatherlink.com 1.10,2013-08-20 03:23:00,
2013-08-20 06:38:00,74.6,72.0,29.95,North,360,11.0,-999.0,90,-99.99,,,0.00,weatherlink.com 1.10,2013-08-20 03:38:00,
2013-08-20 06:53:00,74.7,72.0,29.95,NNW,336,7.0,-999.0,91,-99.99,,,0.00,weatherlink.com 1.10,2013-08-20 03:53:00,
2013-08-20 07:08:00,74.9,72.0,29.95,NNE,30,9.0,-999.0,91,-99.99,,,0.00,weatherlink.com 1.10,2013-08-20 04:08:00,
2013-08-20 07:23:00,75.3,72.0,29.96,NE,36,5.0,-999.0,90,-99.99,,,0.00,weatherlink.com 1.10,2013-08-20 04:23:00,
2013-08-20 07:38:00,76.0,72.0,29.96,NNW,347,3.0,-999.0,88,-99.99,,,0.00,weatherlink.com 1.10,2013-08-20 04:38:00,
2013-08-20 07:54:00,76.7,73.0,29.96,North,360,7.0,-999.0,87,-99.99,,,0.00,weatherlink.com 1.10,2013-08-20 04:54:00,
2013-08-20 08:10:00,77.0,73.0,29.96,North,5,4.0,-999.0,86,-99.99,,,0.00,weatherlink.com 1.10,2013-08-20 05:10:00,
2013-08-20 08:23:00,77.7,73.0,29.96,NNE,17,7.0,-999.0,85,-99.99,,,0.00,weatherlink.com 1.10,2013-08-20 05:23:00,
2013-08-20 08:39:00,77.8,73.0,29.96,NNW,347,7.0,-999.0,84,-99.99,,,0.00,weatherlink.com 1.10,2013-08-20 05:39:00,
2013-08-20 08:53:00,78.2,72.0,29.96,NE,40,12.0,-999.0,82,-99.99,,,0.00,weatherlink.com 1.10,2013-08-20 05:53:00,
2013-08-20 09:09:00,79.1,72.0,29.96,North,360,7.0,-999.0,79,-99.99,,,0.00,weatherlink.com 1.10,2013-08-20 06:09:00,
2013-08-20 09:24:00,79.8,72.0,29.96,North,355,8.0,-999.0,76,-99.99,,,0.00,weatherlink.com 1.10,2013-08-20 06:24:00,
2013-08-20 09:39:00,80.6,70.0,29.96,NNE,19,16.0,-999.0,69,-99.99,,,0.00,weatherlink.com 1.10,2013-08-20 06:39:00,
2013-08-20 09:54:00,81.3,69.0,29.96,NNE,19,9.0,-999.0,67,-99.99,,,0.00,weatherlink.com 1.10,2013-08-20 06:54:00,
2013-08-20 10:09:00,81.8,69.0,29.96,NE,43,17.0,-999.0,66,-99.99,,,0.00,weatherlink.com 1.10,2013-08-20 07:09:00,
2013-08-20 10:24:00,82.5,70.0,29.96,NNE,28,5.0,-999.0,65,-99.99,,,0.00,weatherlink.com 1.10,2013-08-20 07:24:00,
2013-08-20 10:39:00,82.0,69.0,29.96,NE,42,10.0,-999.0,64,-99.99,,,0.00,weatherlink.com 1.10,2013-08-20 07:39:00,
2013-08-20 10:54:00,82.3,68.0,29.97,NE,42,11.0,-999.0,63,-99.99,,,0.00,weatherlink.com 1.10,2013-08-20 07:54:00,
2013-08-20 11:09:00,83.1,68.0,29.97,NE,41,12.0,-999.0,60,-99.99,,,0.00,weatherlink.com 1.10,2013-08-20 08:09:00,
2013-08-20 11:24:00,83.2,68.0,29.97,NNW,329,5.0,-999.0,60,-99.99,,,0.00,weatherlink.com 1.10,2013-08-20 08:24:00,
2013-08-20 11:39:00,83.9,67.0,29.97,North,5,6.0,-999.0,57,-99.99,,,0.00,weatherlink.com 1.10,2013-08-20 08:39:00,
2013-08-20 11:54:00,83.7,67.0,29.97,NNE,19,6.0,-999.0,57,-99.99,,,0.00,weatherlink.com 1.10,2013-08-20 08:54:00,
2013-08-20 12:11:00,84.9,67.0,29.96,NNE,16,13.0,-999.0,55,-99.99,,,0.00,weatherlink.com 1.10,2013-08-20 09:11:00,
2013-08-20 12:25:00,84.8,67.0,29.97,NE,40,10.0,-999.0,55,-99.99,,,0.00,weatherlink.com 1.10,2013-08-20 09:25:00,
2013-08-20 12:39:00,84.8,65.0,29.96,NNE,30,8.0,-999.0,52,-99.99,,,0.00,weatherlink.com 1.10,2013-08-20 09:39:00,
2013-08-20 12:54:00,84.8,66.0,29.97,NE,34,10.0,-999.0,53,-99.99,,,0.00,weatherlink.com 1.10,2013-08-20 09:54:00,
2013-08-20 13:09:00,85.1,66.0,29.96,NE,42,9.0,-999.0,53,-99.99,,,0.00,weatherlink.com 1.10,2013-08-20 10:09:00,
2013-08-20 13:24:00,85.3,65.0,29.96,NNE,26,14.0,-999.0,50,-99.99,,,0.00,weatherlink.com 1.10,2013-08-20 10:24:00,
2013-08-20 13:39:00,85.6,63.0,29.96,NE,54,12.0,-999.0,47,-99.99,,,0.00,weatherlink.com 1.10,2013-08-20 10:39:00,
2013-08-20 13:55:00,85.7,65.0,29.96,NNE,32,10.0,-999.0,50,-99.99,,,0.00,weatherlink.com 1.10,2013-08-20 10:55:00,
2013-08-20 14:09:00,84.9,65.0,29.95,NNE,17,19.0,-999.0,51,-99.99,,,0.00,weatherlink.com 1.10,2013-08-20 11:09:00,
2013-08-20 14:24:00,85.1,63.0,29.95,NNE,19,11.0,-999.0,48,-99.99,,,0.00,weatherlink.com 1.10,2013-08-20 11:24:00,
2013-08-20 14:39:00,85.6,63.0,29.95,NE,34,19.0,-999.0,47,-99.99,,,0.00,weatherlink.com 1.10,2013-08-20 11:39:00,
2013-08-20 14:54:00,85.4,66.0,29.95,North,11,8.0,-999.0,52,-99.99,,,0.00,weatherlink.com 1.10,2013-08-20 11:54:00,
2013-08-20 15:09:00,85.3,63.0,29.95,NNE,17,11.0,-999.0,47,-99.99,,,0.00,weatherlink.com 1.10,2013-08-20 12:09:00,
2013-08-20 15:26:00,84.6,62.0,29.95,NE,36,14.0,-999.0,47,-99.99,,,0.00,weatherlink.com 1.10,2013-08-20 12:26:00,
2013-08-20 15:39:00,84.8,63.0,29.95,NNE,17,9.0,-999.0,48,-99.99,,,0.00,weatherlink.com 1.10,2013-08-20 12:39:00,
2013-08-20 15:54:00,84.9,65.0,29.95,NNE,30,11.0,-999.0,51,-99.99,,,0.00,weatherlink.com 1.10,2013-08-20 12:54:00,
2013-08-20 16:11:00,84.5,66.0,29.95,NNE,13,15.0,-999.0,54,-99.99,,,0.00,weatherlink.com 1.10,2013-08-20 13:11:00,
2013-08-20 16:24:00,84.2,64.0,29.95,NNE,24,15.0,-999.0,50,-99.99,,,0.00,weatherlink.com 1.10,2013-08-20 13:24:00,
2013-08-20 16:39:00,84.1,65.0,29.94,NNE,23,13.0,-999.0,53,-99.99,,,0.00,weatherlink.com 1.10,2013-08-20 13:39:00,
2013-08-20 16:54:00,84.1,66.0,29.94,NE,55,15.0,-999.0,55,-99.99,,,0.00,weatherlink.com 1.10,2013-08-20 13:54:00,
2013-08-20 17:12:00,82.9,66.0,29.94,NNE,19,13.0,-999.0,57,-99.99,,,0.00,weatherlink.com 1.10,2013-08-20 14:12:00,
2013-08-20 17:24:00,82.8,65.0,29.94,NW,317,9.0,-999.0,56,-99.99,,,0.00,weatherlink.com 1.10,2013-08-20 14:24:00,
2013-08-20 17:40:00,82.8,66.0,29.95,NNW,339,7.0,-999.0,57,-99.99,,,0.00,weatherlink.com 1.10,2013-08-20 14:40:00,
2013-08-20 17:54:00,82.8,65.0,29.94,NNW,342,11.0,-999.0,55,-99.99,,,0.00,weatherlink.com 1.10,2013-08-20 14:54:00,
2013-08-20 18:09:00,82.8,63.0,29.94,NNE,24,11.0,-999.0,52,-99.99,,,0.00,weatherlink.com 1.10,2013-08-20 15:09:00,
2013-08-20 18:33:00,82.0,64.0,29.94,NE,53,12.0,-999.0,55,-99.99,,,0.00,weatherlink.com 1.10,2013-08-20 15:33:00,
2013-08-20 18:39:00,81.9,64.0,29.94,NNE,25,5.0,-999.0,55,-99.99,,,0.00,weatherlink.com 1.10,2013-08-20 15:39:00,
2013-08-20 18:54:00,81.4,64.0,29.94,ENE,71,13.0,-999.0,55,-99.99,,,0.00,weatherlink.com 1.10,2013-08-20 15:54:00,
2013-08-20 19:09:00,80.8,65.0,29.94,NE,46,8.0,-999.0,58,-99.99,,,0.00,weatherlink.com 1.10,2013-08-20 16:09:00,
2013-08-20 19:24:00,80.3,64.0,29.94,North,5,15.0,-999.0,58,-99.99,,,0.00,weatherlink.com 1.10,2013-08-20 16:24:00,
2013-08-20 19:39:00,79.6,66.0,29.95,NE,41,12.0,-999.0,63,-99.99,,,0.00,weatherlink.com 1.10,2013-08-20 16:39:00,
2013-08-20 19:54:00,78.5,68.0,29.95,North,350,9.0,-999.0,71,-99.99,,,0.00,weatherlink.com 1.10,2013-08-20 16:54:00,
2013-08-20 20:09:00,77.8,70.0,29.95,NE,37,11.0,-999.0,76,-99.99,,,0.00,weatherlink.com 1.10,2013-08-20 17:09:00,
2013-08-20 20:24:00,77.5,70.0,29.95,NNE,21,8.0,-999.0,77,-99.99,,,0.00,weatherlink.com 1.10,2013-08-20 17:24:00,
2013-08-20 20:39:00,77.3,70.0,29.95,NNE,21,5.0,-999.0,79,-99.99,,,0.00,weatherlink.com 1.10,2013-08-20 17:39:00,
2013-08-20 20:55:00,77.1,70.0,29.96,NE,34,7.0,-999.0,79,-99.99,,,0.00,weatherlink.com 1.10,2013-08-20 17:55:00,
2013-08-20 21:09:00,77.0,70.0,29.96,NNE,15,10.0,-999.0,79,-99.99,,,0.00,weatherlink.com 1.10,2013-08-20 18:09:00,
2013-08-20 21:24:00,76.9,70.0,29.97,NNE,29,2.0,-999.0,80,-99.99,,,0.00,weatherlink.com 1.10,2013-08-20 18:24:00,
2013-08-20 21:40:00,76.8,70.0,29.97,NNE,24,5.0,-999.0,80,-99.99,,,0.00,weatherlink.com 1.10,2013-08-20 18:40:00,
2013-08-20 21:55:00,76.7,71.0,29.97,NNE,26,5.0,-999.0,81,-99.99,,,0.00,weatherlink.com 1.10,2013-08-20 18:55:00,
2013-08-20 22:25:00,76.7,71.0,29.97,NNE,16,9.0,-999.0,81,-99.99,,,0.00,weatherlink.com 1.10,2013-08-20 19:25:00,
2013-08-20 22:40:00,76.6,70.0,29.97,NE,49,7.0,-999.0,81,-99.99,,,0.00,weatherlink.com 1.10,2013-08-20 19:40:00,
2013-08-20 22:55:00,76.5,71.0,29.97,NE,40,5.0,-999.0,82,-99.99,,,0.00,weatherlink.com 1.10,2013-08-20 19:55:00,
2013-08-20 23:10:00,76.3,70.0,29.97,NNE,26,7.0,-999.0,82,-99.99,,,0.00,weatherlink.com 1.10,2013-08-20 20:10:00,
2013-08-20 23:25:00,76.2,71.0,29.97,NE,51,5.0,-999.0,83,-99.99,,,0.00,weatherlink.com 1.10,2013-08-20 20:25:00,
2013-08-20 23:40:00,76.1,71.0,29.97,NE,42,5.0,-999.0,83,-99.99,,,0.00,weatherlink.com 1.10,2013-08-20 20:40:00,
2013-08-20 23:55:00,76.1,70.0,29.97,North,360,2.0,-999.0,82,-99.99,,,0.00,weatherlink.com 1.10,2013-08-20 20:55:00,